Time;durP1;ratioP1;P1;durP2;ratioP2;P2;SDS_P1;SDS_P2;PMS_P1;PMS_P2;Temp;Humidity;BMP_temperature;BMP_pressure;BME280_temperature;BME280_humidity;BME280_pressure;Samples;Min_cycle;Max_cycle;Signal;HPM_P1;HPM_P2
2022/01/11 00:00:43;;;;;;;37.05;22.05;;;;;;;-1.34;100.00;98297.41;5093876;28;20028;-73
2022/01/11 00:03:09;;;;;;;43.55;22.58;;;;;;;-1.36;100.00;98290.59;5094107;28;20492;-73
2022/01/11 00:06:02;;;;;;;38.80;21.45;;;;;;;-1.46;100.00;98293.72;5110247;28;20077;-73
2022/01/11 00:08:33;;;;;;;35.85;19.70;;;;;;;-1.40;100.00;98298.25;5113898;28;20088;-74
2022/01/11 00:11:04;;;;;;;40.42;19.85;;;;;;;-1.35;100.00;98303.81;5114302;28;20433;-73
2022/01/11 00:13:39;;;;;;;36.22;18.67;;;;;;;-1.40;100.00;98311.66;5112559;28;21470;-73
2022/01/11 00:16:06;;;;;;;36.28;19.98;;;;;;;-1.42;100.00;98313.75;5114540;28;20031;-73
2022/01/11 00:18:32;;;;;;;37.35;21.20;;;;;;;-1.55;100.00;98308.41;5114954;28;20055;-74
2022/01/11 00:20:58;;;;;;;36.22;19.98;;;;;;;-1.54;100.00;98304.69;5114293;28;20447;-73
2022/01/11 00:25:51;;;;;;;35.45;19.90;;;;;;;-1.48;100.00;98319.13;5115309;28;20030;-73
2022/01/11 00:28:18;;;;;;;33.67;19.35;;;;;;;-1.52;100.00;98318.72;5115906;28;20024;-74
2022/01/11 00:30:45;;;;;;;34.75;18.77;;;;;;;-1.47;100.00;98315.41;5115771;28;20020;-73
2022/01/11 00:33:16;;;;;;;34.45;19.25;;;;;;;-1.40;100.00;98319.72;5115740;28;20035;-72
2022/01/11 00:35:44;;;;;;;36.97;18.92;;;;;;;-1.45;100.00;98321.38;5114595;28;20031;-74
2022/01/11 00:38:15;;;;;;;31.50;18.65;;;;;;;-1.52;100.00;98326.75;5112785;28;20496;-74
2022/01/11 00:40:45;;;;;;;37.30;19.38;;;;;;;-1.50;100.00;98324.69;5106664;28;20468;-73
2022/01/11 00:43:11;;;;;;;37.63;19.23;;;;;;;-1.56;100.00;98325.50;5092533;28;20028;-72
2022/01/11 00:45:37;;;;;;;35.13;18.23;;;;;;;-1.46;100.00;98325.91;5093159;28;20028;-73
2022/01/11 00:48:02;;;;;;;36.22;18.88;;;;;;;-1.40;100.00;98335.81;5093215;28;20111;-72
2022/01/11 00:50:28;;;;;;;37.88;19.92;;;;;;;-1.43;100.00;98336.22;5093616;28;20552;-73
2022/01/11 00:52:56;;;;;;;34.80;18.50;;;;;;;-1.32;100.00;98340.97;5094255;28;20020;-73
2022/01/11 00:55:22;;;;;;;39.28;19.95;;;;;;;-1.32;100.00;98338.28;5095583;28;20039;-73
2022/01/11 00:57:47;;;;;;;32.97;18.63;;;;;;;-1.39;100.00;98342.81;5105212;28;20407;-78
2022/01/11 01:00:13;;;;;;;37.92;20.27;;;;;;;-1.39;100.00;98342.81;5114432;28;20019;-73
2022/01/11 01:02:39;;;;;;;36.90;19.77;;;;;;;-1.42;100.00;98347.78;5113845;28;20480;-74
2022/01/11 01:05:05;;;;;;;33.42;17.65;;;;;;;-1.49;100.00;98350.47;5113790;28;20031;-73
2022/01/11 01:07:31;;;;;;;37.88;18.90;;;;;;;-1.52;100.00;98358.94;5113823;28;20028;-72
2022/01/11 01:10:06;;;;;;;32.95;18.30;;;;;;;-1.49;100.00;98368.41;5113467;28;20019;-73
2022/01/11 01:12:34;;;;;;;32.97;18.25;;;;;;;-1.56;100.00;98368.41;5113258;28;20035;-73
2022/01/11 01:15:00;;;;;;;31.52;18.73;;;;;;;-1.45;100.00;98375.03;5113174;28;20028;-73
2022/01/11 01:17:26;;;;;;;35.85;18.27;;;;;;;-1.46;100.00;98376.88;5111925;28;20472;-73
2022/01/11 01:19:52;;;;;;;40.50;19.45;;;;;;;-1.48;100.00;98375.44;5113439;27;20150;-73
2022/01/11 01:22:18;;;;;;;36.25;18.38;;;;;;;-1.50;100.00;98375.63;5113047;28;20133;-73
2022/01/11 01:24:44;;;;;;;34.15;17.83;;;;;;;-1.48;100.00;98381.63;5112802;28;20407;-72
2022/01/11 01:27:09;;;;;;;34.85;18.75;;;;;;;-1.44;100.00;98380.16;5113810;28;20031;-73
2022/01/11 01:29:35;;;;;;;31.90;17.83;;;;;;;-1.50;100.00;98380.19;5112889;28;20061;-73
2022/01/11 01:32:01;;;;;;;33.70;17.15;;;;;;;-1.49;100.00;98379.97;5112720;28;20134;-73
2022/01/11 01:34:27;;;;;;;33.15;18.00;;;;;;;-1.51;100.00;98387.41;5112602;28;20031;-73
2022/01/11 01:36:53;;;;;;;35.33;18.40;;;;;;;-1.56;100.00;98381.81;5112613;28;20020;-74
2022/01/11 01:39:19;;;;;;;35.00;18.23;;;;;;;-1.58;100.00;98386.59;5112576;28;20049;-74
2022/01/11 01:41:46;;;;;;;36.35;17.85;;;;;;;-1.56;100.00;98397.09;5112371;28;20102;-75
2022/01/11 01:44:13;;;;;;;32.85;16.70;;;;;;;-1.49;100.00;98395.22;5112569;28;20138;-74
2022/01/11 01:46:38;;;;;;;31.48;16.85;;;;;;;-1.64;100.00;98387.41;5112675;28;20032;-74
2022/01/11 01:49:04;;;;;;;34.38;18.08;;;;;;;-1.72;100.00;98392.97;5112686;28;20053;-74
2022/01/11 01:51:29;;;;;;;28.83;16.33;;;;;;;-1.62;100.00;98388.03;5112330;28;20088;-74
2022/01/11 01:53:55;;;;;;;30.65;16.98;;;;;;;-1.61;100.00;98400.41;5112133;28;20016;-75
2022/01/11 01:56:22;;;;;;;30.38;15.93;;;;;;;-1.66;100.00;98405.56;5111981;28;20442;-74
2022/01/11 01:58:49;;;;;;;35.15;17.85;;;;;;;-1.65;100.00;98404.53;5112425;28;20495;-74
2022/01/11 02:01:15;;;;;;;37.63;17.70;;;;;;;-1.85;100.00;98406.38;5112214;28;20028;-74
2022/01/11 02:03:43;;;;;;;38.05;17.83;;;;;;;-1.99;100.00;98405.53;5112115;28;20425;-74
2022/01/11 02:06:12;;;;;;;32.83;16.95;;;;;;;-1.96;100.00;98409.66;5112186;28;20376;-74
2022/01/11 02:08:38;;;;;;;32.55;17.13;;;;;;;-1.90;100.00;98408.84;5111844;28;20540;-74
2022/01/11 02:11:05;;;;;;;33.38;18.00;;;;;;;-2.04;100.00;98399.97;5111863;28;20476;-74
2022/01/11 02:13:30;;;;;;;31.38;16.30;;;;;;;-2.03;100.00;98415.00;5112015;28;20376;-74
2022/01/11 02:15:57;;;;;;;31.67;16.13;;;;;;;-2.01;100.00;98425.53;5111993;28;20023;-74
2022/01/11 02:18:25;;;;;;;37.08;17.67;;;;;;;-2.07;100.00;98418.31;5112037;28;20023;-74
2022/01/11 02:20:53;;;;;;;30.65;16.40;;;;;;;-2.07;100.00;98423.69;5112390;28;20472;-74
2022/01/11 02:23:20;;;;;;;34.15;17.90;;;;;;;-2.14;100.00;98433.53;5112789;28;20107;-75
2022/01/11 02:25:46;;;;;;;31.30;17.10;;;;;;;-2.16;100.00;98423.84;5111763;28;20072;-75
2022/01/11 02:28:17;;;;;;;33.50;17.23;;;;;;;-2.27;100.00;98408.38;5112056;28;20028;-74
2022/01/11 02:30:44;;;;;;;31.23;16.58;;;;;;;-2.12;100.00;98410.88;5111844;28;20027;-74
2022/01/11 02:33:18;;;;;;;33.13;16.73;;;;;;;-2.20;100.00;98416.44;5110793;28;20031;-74
2022/01/11 02:35:51;;;;;;;30.38;15.20;;;;;;;-2.27;100.00;98429.81;5111704;28;20034;-74
2022/01/11 02:38:17;;;;;;;31.50;16.38;;;;;;;-2.12;100.00;98436.84;5111067;28;20123;-74
2022/01/11 02:40:43;;;;;;;32.00;17.38;;;;;;;-2.18;100.00;98436.63;5111711;28;20098;-74
2022/01/11 02:43:08;;;;;;;29.40;15.52;;;;;;;-2.19;100.00;98437.66;5111785;28;20035;-74
2022/01/11 02:45:34;;;;;;;30.77;15.82;;;;;;;-2.19;100.00;98447.53;5111353;28;20028;-74
2022/01/11 02:47:59;;;;;;;33.00;16.33;;;;;;;-2.24;100.00;98453.50;5111495;28;20042;-74
2022/01/11 02:50:25;;;;;;;30.75;15.57;;;;;;;-2.22;100.00;98443.41;5111744;28;20027;-74
2022/01/11 02:52:51;;;;;;;34.13;15.65;;;;;;;-2.11;100.00;98459.94;5111259;28;20020;-74
2022/01/11 02:55:17;;;;;;;30.10;14.25;;;;;;;-2.19;100.00;98459.06;5111259;28;20074;-74
2022/01/11 02:57:43;;;;;;;31.20;15.43;;;;;;;-2.19;100.00;98442.19;5111308;28;20395;-74
2022/01/11 03:00:15;;;;;;;30.02;15.38;;;;;;;-2.15;100.00;98456.81;5112300;27;20047;-75
2022/01/11 03:02:41;;;;;;;30.27;15.48;;;;;;;-2.24;100.00;98466.91;5111941;28;20031;-74
2022/01/11 03:05:10;;;;;;;33.90;16.02;;;;;;;-2.09;100.00;98468.59;5112293;28;20035;-75
2022/01/11 03:07:41;;;;;;;27.85;14.05;;;;;;;-2.06;100.00;98462.81;5113299;28;20023;-75
2022/01/11 03:13:02;;;;;;;29.52;15.20;;;;;;;-2.19;100.00;98467.13;5111662;28;20548;-74
2022/01/11 03:15:27;;;;;;;27.92;15.52;;;;;;;-2.29;100.00;98473.91;5111272;28;20027;-74
2022/01/11 03:17:53;;;;;;;29.65;14.80;;;;;;;-2.21;100.00;98481.75;5112851;28;20041;-73
2022/01/11 03:20:21;;;;;;;25.20;13.73;;;;;;;-2.27;100.00;98474.50;5111676;28;20031;-74
2022/01/11 03:22:47;;;;;;;28.92;15.40;;;;;;;-2.27;100.00;98478.03;5110985;28;20027;-73
2022/01/11 03:25:13;;;;;;;28.95;14.98;;;;;;;-2.22;100.00;98480.09;5111049;28;20030;-73
2022/01/11 03:27:44;;;;;;;29.02;14.50;;;;;;;-2.36;100.00;98484.59;5111021;28;20049;-74
2022/01/11 03:30:11;;;;;;;25.17;13.93;;;;;;;-2.22;100.00;98490.78;5111109;28;20468;-74
2022/01/11 03:32:37;;;;;;;24.23;13.45;;;;;;;-2.36;100.00;98489.94;5110978;28;20028;-74
2022/01/11 03:35:05;;;;;;;26.60;14.10;;;;;;;-2.34;100.00;98492.41;5110867;28;20100;-74
2022/01/11 03:37:30;;;;;;;26.83;13.68;;;;;;;-2.29;100.00;98493.44;5110778;28;20790;-74
2022/01/11 03:39:55;;;;;;;27.25;14.45;;;;;;;-2.29;100.00;98489.97;5110958;28;20020;-74
2022/01/11 03:42:21;;;;;;;25.30;13.18;;;;;;;-2.31;100.00;98487.47;5109400;28;20040;-74
2022/01/11 03:44:46;;;;;;;24.17;12.40;;;;;;;-2.31;100.00;98508.06;5110102;28;20525;-74
2022/01/11 03:47:12;;;;;;;26.27;13.35;;;;;;;-2.39;100.00;98493.03;5112800;28;20030;-74
2022/01/11 03:49:37;;;;;;;27.35;13.45;;;;;;;-2.42;100.00;98492.59;5112727;28;20046;-74
2022/01/11 03:52:03;;;;;;;23.85;13.43;;;;;;;-2.44;100.00;98500.81;5110960;28;20023;-73
2022/01/11 03:54:43;;;;;;;26.35;12.85;;;;;;;-2.38;100.00;98499.22;5109399;28;20436;-74
2022/01/11 03:57:08;;;;;;;28.95;14.02;;;;;;;-2.39;100.00;98506.41;5110745;28;20043;-74
2022/01/11 03:59:34;;;;;;;24.85;13.63;;;;;;;-2.33;100.00;98512.81;5110879;28;20122;-74
2022/01/11 04:02:00;;;;;;;27.98;14.93;;;;;;;-2.50;100.00;98515.00;5110806;28;20016;-74
2022/01/11 04:04:26;;;;;;;26.45;13.30;;;;;;;-2.43;100.00;98513.19;5110604;28;20114;-74
2022/01/11 04:06:52;;;;;;;40.30;14.13;;;;;;;-2.54;100.00;98512.94;5109407;28;20459;-74
2022/01/11 04:09:18;;;;;;;24.67;13.55;;;;;;;-2.60;100.00;98514.53;5110778;28;20043;-74
2022/01/11 04:11:43;;;;;;;27.70;14.52;;;;;;;-2.45;100.00;98514.41;5110571;28;20058;-74
2022/01/11 04:14:09;;;;;;;26.92;13.05;;;;;;;-2.32;100.00;98511.78;5110626;28;20048;-73
2022/01/11 04:16:34;;;;;;;25.27;12.40;;;;;;;-2.25;100.00;98513.47;5110539;28;20063;-73
2022/01/11 04:19:00;;;;;;;22.17;12.15;;;;;;;-2.26;100.00;98516.34;5112150;28;20020;-74
2022/01/11 04:21:25;;;;;;;26.90;13.23;;;;;;;-2.39;100.00;98522.47;5114006;28;20076;-73
2022/01/11 04:23:53;;;;;;;28.50;13.57;;;;;;;-2.38;100.00;98524.09;5116768;28;20490;-73
2022/01/11 04:26:18;;;;;;;26.92;14.18;;;;;;;-2.35;100.00;98529.06;5115275;28;20023;-74
2022/01/11 04:28:44;;;;;;;24.98;13.13;;;;;;;-2.48;100.00;98530.88;5114152;28;20023;-74
2022/01/11 04:31:10;;;;;;;23.60;11.98;;;;;;;-2.59;100.00;98532.25;5114323;28;20035;-74
2022/01/11 04:33:36;;;;;;;23.83;12.32;;;;;;;-2.61;100.00;98534.31;5113736;28;20118;-74
2022/01/11 04:36:02;;;;;;;25.50;13.38;;;;;;;-2.65;100.00;98534.88;5113851;28;20027;-74
2022/01/11 04:38:31;;;;;;;23.83;13.10;;;;;;;-2.65;100.00;98537.56;5113863;27;20088;-74
2022/01/11 04:40:57;;;;;;;25.00;13.07;;;;;;;-2.67;100.00;98545.81;5113563;27;20035;-73
2022/01/11 04:43:22;;;;;;;25.00;13.48;;;;;;;-2.66;100.00;98546.63;5113904;28;20066;-74
2022/01/11 04:45:48;;;;;;;26.10;12.98;;;;;;;-2.68;100.00;98552.16;5113825;28;20072;-74
2022/01/11 04:48:14;;;;;;;25.20;13.15;;;;;;;-2.72;100.00;98543.69;5113709;28;20468;-74
2022/01/11 04:50:40;;;;;;;27.25;12.68;;;;;;;-2.72;100.00;98549.06;5114120;28;20399;-74
2022/01/11 04:53:06;;;;;;;23.67;13.32;;;;;;;-2.76;100.00;98553.13;5113698;28;20015;-74
2022/01/11 04:55:32;;;;;;;29.20;13.18;;;;;;;-2.80;100.00;98548.38;5113670;28;20445;-74
2022/01/11 04:57:58;;;;;;;27.25;12.73;;;;;;;-2.94;100.00;98562.69;5113280;28;20406;-74
2022/01/11 05:00:24;;;;;;;32.97;15.15;;;;;;;-2.95;100.00;98548.50;5111999;28;20020;-74
2022/01/11 05:02:50;;;;;;;25.42;13.13;;;;;;;-2.83;100.00;98548.78;5113325;28;20051;-74
2022/01/11 05:05:16;;;;;;;27.38;13.00;;;;;;;-2.90;100.00;98561.28;5111937;28;20062;-74
2022/01/11 05:07:42;;;;;;;25.83;13.45;;;;;;;-2.85;100.00;98570.38;5113285;28;20031;-74
2022/01/11 05:10:09;;;;;;;26.17;12.57;;;;;;;-2.95;100.00;98574.44;5113280;28;20023;-74
2022/01/11 05:12:34;;;;;;;30.15;13.90;;;;;;;-3.02;100.00;98568.19;5113235;28;20494;-74
2022/01/11 05:15:01;;;;;;;24.95;12.27;;;;;;;-2.98;100.00;98566.78;5113541;28;20019;-74
2022/01/11 05:17:26;;;;;;;26.73;14.35;;;;;;;-2.88;100.00;98573.44;5115028;27;20027;-74
2022/01/11 05:19:51;;;;;;;25.65;13.23;;;;;;;-2.98;100.00;98550.75;5114405;28;20050;-74
2022/01/11 05:22:17;;;;;;;30.60;14.02;;;;;;;-2.90;100.00;98571.97;5112293;27;20092;-74
2022/01/11 05:24:42;;;;;;;27.17;13.48;;;;;;;-2.95;100.00;98575.25;5106075;28;20063;-74
2022/01/11 05:27:09;;;;;;;30.35;14.35;;;;;;;-2.99;100.00;98578.50;5091959;28;20028;-75
2022/01/11 05:29:35;;;;;;;24.63;13.32;;;;;;;-3.04;100.00;98587.13;5091599;28;20463;-74
2022/01/11 05:32:03;;;;;;;29.00;14.02;;;;;;;-2.98;100.00;98578.31;5091870;28;20028;-74
2022/01/11 05:34:30;;;;;;;29.02;14.63;;;;;;;-2.95;100.00;98582.44;5092069;28;20024;-74
2022/01/11 05:36:55;;;;;;;27.33;14.05;;;;;;;-2.99;100.00;98583.84;5092029;28;20038;-74
2022/01/11 05:39:21;;;;;;;30.30;13.75;;;;;;;-3.05;100.00;98590.81;5092011;28;20111;-74
2022/01/11 05:41:46;;;;;;;32.40;13.68;;;;;;;-3.00;100.00;98590.22;5098770;28;20035;-73
2022/01/11 05:44:12;;;;;;;25.70;13.80;;;;;;;-2.96;100.00;98599.50;5112437;28;20122;-75
2022/01/11 05:46:37;;;;;;;30.30;15.32;;;;;;;-3.05;100.00;98596.16;5113452;28;21540;-76
2022/01/11 05:49:03;;;;;;;30.15;14.57;;;;;;;-3.05;100.00;98603.34;5113518;28;20559;-74
2022/01/11 05:51:28;;;;;;;31.27;14.73;;;;;;;-3.14;100.00;98597.31;5112700;28;20023;-75
2022/01/11 05:53:55;;;;;;;27.98;13.75;;;;;;;-3.17;100.00;98607.56;5112411;28;20035;-76
2022/01/11 05:56:21;;;;;;;32.58;13.88;;;;;;;-3.19;100.00;98615.78;5111870;28;20058;-74
2022/01/11 05:58:46;;;;;;;31.83;16.10;;;;;;;-3.17;100.00;98618.28;5112031;28;20395;-74
2022/01/11 06:01:13;;;;;;;27.40;14.30;;;;;;;-3.06;100.00;98620.41;5111724;28;20015;-75
2022/01/11 06:03:38;;;;;;;30.40;14.88;;;;;;;-3.01;100.00;98618.84;5111880;27;20044;-75
2022/01/11 06:06:04;;;;;;;31.15;15.13;;;;;;;-2.85;100.00;98623.88;5111813;28;20429;-73
2022/01/11 06:08:29;;;;;;;30.40;15.52;;;;;;;-2.72;100.00;98628.53;5111822;28;20032;-74
2022/01/11 06:10:56;;;;;;;32.70;14.73;;;;;;;-2.72;100.00;98629.34;5112092;28;20443;-75
2022/01/11 06:13:21;;;;;;;31.10;14.95;;;;;;;-2.74;100.00;98639.44;5112785;28;20380;-75
2022/01/11 06:15:46;;;;;;;31.15;14.60;;;;;;;-2.80;100.00;98642.06;5111580;28;20031;-75
2022/01/11 06:18:12;;;;;;;27.98;13.77;;;;;;;-2.81;100.00;98657.28;5105222;28;20028;-75
2022/01/11 06:20:37;;;;;;;28.08;13.52;;;;;;;-2.83;100.00;98659.34;5090083;28;20040;-75
2022/01/11 06:23:03;;;;;;;27.25;13.45;;;;;;;-2.81;100.00;98657.28;5091191;28;20046;-74
2022/01/11 06:25:28;;;;;;;31.50;13.77;;;;;;;-2.82;100.00;98662.84;5091186;28;20032;-74
2022/01/11 06:27:54;;;;;;;30.63;15.13;;;;;;;-2.57;100.00;98666.75;5091179;28;20032;-74
2022/01/11 06:30:20;;;;;;;28.88;14.10;;;;;;;-2.57;100.00;98674.78;5090999;28;20027;-73
2022/01/11 06:32:46;;;;;;;27.63;13.57;;;;;;;-2.56;100.00;98673.75;5090949;28;20047;-73
2022/01/11 06:35:14;;;;;;;25.52;12.77;;;;;;;-2.56;100.00;98676.41;5090829;28;20071;-73
2022/01/11 06:37:39;;;;;;;26.40;13.48;;;;;;;-2.43;100.00;98676.53;5090975;28;20032;-74
2022/01/11 06:40:05;;;;;;;23.92;12.80;;;;;;;-2.32;100.00;98678.66;5090961;28;20024;-74
2022/01/11 06:42:31;;;;;;;26.98;13.10;;;;;;;-2.35;100.00;98679.03;5095720;28;20023;-74
2022/01/11 06:44:57;;;;;;;32.13;14.13;;;;;;;-2.30;100.00;98681.97;5110408;28;20535;-74
2022/01/11 06:47:23;;;;;;;30.65;15.70;;;;;;;-2.24;100.00;98686.56;5111263;28;20110;-74
2022/01/11 06:49:48;;;;;;;32.47;16.58;;;;;;;-2.21;100.00;98683.47;5110620;28;20059;-74
2022/01/11 06:52:14;;;;;;;32.15;15.32;;;;;;;-2.16;100.00;98694.44;5110954;28;20023;-74
2022/01/11 06:54:40;;;;;;;29.27;14.77;;;;;;;-1.95;100.00;98711.47;5111001;28;20383;-74
2022/01/11 06:57:06;;;;;;;26.10;13.80;;;;;;;-1.92;100.00;98708.38;5110724;28;20043;-74
2022/01/11 06:59:32;;;;;;;28.50;14.00;;;;;;;-1.69;100.00;98706.22;5110983;28;20128;-74
2022/01/11 07:01:57;;;;;;;27.02;12.70;;;;;;;-1.10;100.00;98707.28;5105615;28;20020;-74
2022/01/11 07:04:22;;;;;;;25.90;13.90;;;;;;;-0.50;100.00;98718.94;5107978;28;20051;-74
2022/01/11 07:06:48;;;;;;;26.10;13.07;;;;;;;0.22;100.00;98718.09;5109657;28;20032;-74
2022/01/11 07:09:13;;;;;;;23.35;13.55;;;;;;;1.03;100.00;98733.47;5109842;28;20012;-73
2022/01/11 07:11:39;;;;;;;25.05;12.70;;;;;;;2.01;100.00;98740.06;5110213;28;20023;-75
2022/01/11 07:14:04;;;;;;;24.40;11.60;;;;;;;2.47;95.70;98733.38;5110218;28;20456;-74
2022/01/11 07:16:30;;;;;;;22.30;10.95;;;;;;;3.47;87.35;98737.31;5110579;28;20023;-75
2022/01/11 07:18:55;;;;;;;23.20;12.45;;;;;;;4.06;83.65;98748.00;5113246;28;20026;-75
2022/01/11 07:21:21;;;;;;;20.90;11.80;;;;;;;4.75;79.72;98747.16;5110670;28;20016;-75
2022/01/11 07:23:46;;;;;;;23.33;13.27;;;;;;;5.30;76.30;98743.94;5109973;28;20471;-75
2022/01/11 07:26:11;;;;;;;23.17;11.80;;;;;;;5.01;75.19;98756.63;5109719;28;20016;-74
2022/01/11 07:28:37;;;;;;;26.10;12.77;;;;;;;5.12;76.01;98749.53;5109639;28;20027;-75
2022/01/11 07:31:03;;;;;;;22.42;12.75;;;;;;;5.62;73.96;98757.81;5109653;28;20019;-75
2022/01/11 07:33:28;;;;;;;26.13;14.23;;;;;;;5.06;74.69;98762.16;5109994;28;20400;-76
2022/01/11 07:35:54;;;;;;;25.77;13.40;;;;;;;6.24;70.16;98764.09;5106919;28;20027;-75
2022/01/11 07:38:20;;;;;;;26.27;13.05;;;;;;;5.37;72.71;98769.84;5109823;28;20023;-75
2022/01/11 07:40:45;;;;;;;29.77;16.77;;;;;;;6.60;69.44;98774.44;5109689;28;20114;-75
2022/01/11 07:43:11;;;;;;;28.73;14.38;;;;;;;5.28;72.09;98779.44;5109397;28;20047;-75
2022/01/11 07:45:36;;;;;;;28.70;13.27;;;;;;;5.57;72.21;98782.16;5103761;28;20472;-74
2022/01/11 07:48:02;;;;;;;27.77;14.35;;;;;;;6.08;69.14;98792.88;5108624;28;20076;-75
2022/01/11 07:50:27;;;;;;;29.42;14.40;;;;;;;5.65;71.57;98785.31;5109576;28;20523;-74
2022/01/11 07:52:56;;;;;;;30.35;16.48;;;;;;;5.72;69.50;98794.13;5109782;28;20027;-76
2022/01/11 07:55:22;;;;;;;30.13;16.33;;;;;;;5.89;69.41;98796.88;5113270;28;20023;-76
2022/01/11 07:57:50;;;;;;;28.08;15.40;;;;;;;6.27;67.57;98805.16;5113452;28;20085;-75
2022/01/11 08:00:15;;;;;;;27.17;15.60;;;;;;;4.70;73.15;98808.53;5117087;28;20028;-75
2022/01/11 08:02:42;;;;;;;27.92;15.43;;;;;;;4.05;76.60;98810.47;5118147;28;20110;-75
2022/01/11 08:05:10;;;;;;;31.40;16.55;;;;;;;5.23;72.80;98808.34;5113605;28;20028;-74
2022/01/11 08:07:36;;;;;;;32.72;16.25;;;;;;;5.57;70.71;98823.69;5113406;28;20028;-75
2022/01/11 08:10:03;;;;;;;32.50;16.90;;;;;;;5.22;70.62;98822.97;5112987;28;20039;-74
2022/01/11 08:12:31;;;;;;;35.17;19.23;;;;;;;4.27;74.65;98822.41;5113999;28;20138;-73
2022/01/11 08:14:56;;;;;;;29.83;16.33;;;;;;;3.16;81.53;98801.31;5113354;28;20495;-77
2022/01/11 08:17:22;;;;;;;32.20;17.63;;;;;;;3.20;81.78;98816.03;5112572;28;20028;-73
2022/01/11 08:19:50;;;;;;;32.13;16.90;;;;;;;4.35;76.43;98826.66;5113044;28;20027;-79
2022/01/11 08:22:15;;;;;;;32.15;17.17;;;;;;;4.06;76.46;98829.22;5112749;28;20131;-75
2022/01/11 08:24:44;;;;;;;29.65;15.70;;;;;;;4.35;76.33;98819.38;5112766;28;20114;-74
2022/01/11 08:27:11;;;;;;;31.25;17.10;;;;;;;3.99;79.23;98824.94;5109950;28;20023;-74
2022/01/11 08:29:37;;;;;;;29.75;16.48;;;;;;;4.46;74.17;98833.97;5113546;28;20033;-74
2022/01/11 08:32:03;;;;;;;30.70;16.77;;;;;;;4.25;74.58;98830.78;5113120;28;20033;-73
2022/01/11 08:34:28;;;;;;;29.00;15.65;;;;;;;4.71;73.43;98838.09;5113163;28;20501;-74
2022/01/11 08:36:55;;;;;;;36.85;19.05;;;;;;;4.50;74.22;98827.03;5112950;27;20115;-75
2022/01/11 08:39:21;;;;;;;30.17;16.85;;;;;;;5.44;70.87;98825.84;5111347;28;20161;-76
2022/01/11 08:41:47;;;;;;;33.10;17.55;;;;;;;5.40;70.02;98842.63;5103320;27;20110;-74
2022/01/11 08:44:12;;;;;;;32.13;16.55;;;;;;;5.27;69.78;98836.63;5098089;28;20023;-76
2022/01/11 08:46:42;;;;;;;31.25;16.75;;;;;;;4.69;74.47;98834.00;5107820;28;20126;-76
2022/01/11 08:49:08;;;;;;;29.17;17.17;;;;;;;5.61;69.95;98835.69;5103648;28;20032;-74
2022/01/11 08:51:34;;;;;;;36.60;19.73;;;;;;;4.90;71.32;98846.09;5093563;28;20354;-74
2022/01/11 08:53:59;;;;;;;35.28;18.67;;;;;;;5.97;68.64;98858.94;5097812;28;20028;-73
2022/01/11 08:56:25;;;;;;;32.53;17.08;;;;;;;6.73;63.99;98844.78;5100666;28;20420;-76
2022/01/11 08:58:50;;;;;;;30.70;17.13;;;;;;;5.83;68.59;98842.09;5098619;28;20035;-73
2022/01/11 09:01:16;;;;;;;31.73;16.58;;;;;;;6.75;65.01;98844.50;5091915;28;20035;-74
2022/01/11 09:03:41;;;;;;;30.77;18.55;;;;;;;5.99;66.56;98845.94;5095048;28;20039;-75
2022/01/11 09:06:08;;;;;;;34.40;18.60;;;;;;;7.95;60.64;98860.78;5112807;28;20019;-74
2022/01/11 09:08:34;;;;;;;31.65;19.40;;;;;;;6.55;62.39;98861.31;5103536;28;20046;-75
2022/01/11 09:11:00;;;;;;;33.50;18.73;;;;;;;8.25;59.32;98861.09;5092182;28;20074;-73
2022/01/11 09:13:26;;;;;;;30.17;17.60;;;;;;;8.27;59.31;98861.66;5090641;28;20109;-73
2022/01/11 09:15:52;;;;;;;33.58;18.38;;;;;;;9.21;56.22;98867.31;5091820;28;20698;-74
2022/01/11 09:18:18;;;;;;;31.33;18.67;;;;;;;7.72;59.29;98856.44;5096025;28;20024;-74
2022/01/11 09:20:44;;;;;;;32.85;18.75;;;;;;;7.41;59.72;98854.44;5103251;28;20027;-73
2022/01/11 09:23:09;;;;;;;32.75;17.60;;;;;;;7.60;60.33;98863.09;5105804;28;20403;-73
2022/01/11 09:25:35;;;;;;;33.55;19.65;;;;;;;5.69;66.08;98861.63;5092705;28;20032;-73
2022/01/11 09:28:00;;;;;;;36.72;19.13;;;;;;;5.64;67.71;98862.34;5092046;28;20132;-75
2022/01/11 09:30:26;;;;;;;33.65;19.42;;;;;;;4.67;69.25;98863.19;5091788;28;20020;-73
2022/01/11 09:32:51;;;;;;;34.70;19.48;;;;;;;5.54;67.95;98858.63;5091461;28;20031;-73
2022/01/11 09:35:17;;;;;;;31.08;19.15;;;;;;;5.19;68.18;98862.25;5091337;28;20515;-73
2022/01/11 09:37:46;;;;;;;32.78;18.73;;;;;;;6.65;65.22;98863.38;5099479;28;20035;-74
2022/01/11 09:40:12;;;;;;;33.92;18.38;;;;;;;7.44;60.53;98862.91;5104665;28;20032;-73
2022/01/11 09:42:38;;;;;;;35.40;20.45;;;;;;;5.73;66.59;98868.25;5094531;28;20027;-74
2022/01/11 09:45:07;;;;;;;35.10;19.45;;;;;;;6.51;62.56;98860.19;5093118;28;20053;-73
2022/01/11 09:47:32;;;;;;;37.70;20.00;;;;;;;7.29;60.79;98867.34;5100218;28;20065;-73
2022/01/11 09:49:58;;;;;;;47.50;24.02;;;;;;;5.19;67.86;98858.69;5089771;28;20016;-74
2022/01/11 09:52:26;;;;;;;40.97;22.65;;;;;;;4.63;69.41;98862.03;5093330;28;20544;-73
2022/01/11 09:54:53;;;;;;;35.15;18.67;;;;;;;5.49;67.59;98847.66;5108161;28;20055;-73
2022/01/11 09:57:19;;;;;;;40.08;21.05;;;;;;;6.86;64.01;98857.22;5107108;28;20038;-73
2022/01/11 09:59:44;;;;;;;35.13;20.42;;;;;;;6.99;62.51;98846.78;5101946;28;20049;-72
2022/01/11 10:02:12;;;;;;;36.47;19.17;;;;;;;7.40;60.23;98848.16;5106761;28;20015;-74
2022/01/11 10:04:37;;;;;;;34.75;19.92;;;;;;;6.73;62.49;98852.09;5107062;28;20721;-74
2022/01/11 10:07:06;;;;;;;44.45;22.00;;;;;;;7.23;61.27;98847.41;5106828;28;20011;-74
2022/01/11 10:09:40;;;;;;;32.60;19.00;;;;;;;7.48;59.50;98849.63;5107239;28;20502;-74
2022/01/11 10:12:10;;;;;;;37.53;20.23;;;;;;;6.47;61.30;98848.16;5105202;28;20430;-72
2022/01/11 10:14:38;;;;;;;35.05;20.08;;;;;;;7.39;61.10;98849.22;5104373;28;20060;-73
2022/01/11 10:17:20;;;;;;;73.53;31.48;;;;;;;7.75;58.34;98845.03;5109065;28;20032;-74
2022/01/11 10:19:48;;;;;;;51.85;24.95;;;;;;;5.97;64.60;98839.94;5098818;28;20502;-73
2022/01/11 10:22:19;;;;;;;38.90;21.10;;;;;;;6.88;62.92;98836.84;5102642;28;20020;-73
2022/01/11 10:24:47;;;;;;;73.07;30.77;;;;;;;6.26;64.47;98829.88;5096103;28;20024;-72
2022/01/11 10:27:24;;;;;;;40.42;20.63;;;;;;;7.21;60.97;98845.97;5096840;28;20028;-73
2022/01/11 10:29:59;;;;;;;38.30;21.35;;;;;;;7.35;60.00;98845.38;5106030;28;20472;-74
2022/01/11 10:32:32;;;;;;;37.25;20.67;;;;;;;8.13;57.26;98846.00;5099149;28;20453;-72
2022/01/11 10:35:07;;;;;;;47.80;26.02;;;;;;;6.42;60.54;98851.59;5106875;28;20136;-73
2022/01/11 10:37:44;;;;;;;42.83;22.35;;;;;;;5.43;66.08;98846.72;5100190;28;20034;-71
2022/01/11 10:40:26;;;;;;;48.22;24.92;;;;;;;4.90;68.36;98849.66;5100533;28;20028;-71
2022/01/11 10:43:12;;;;;;;33.30;19.83;;;;;;;5.08;67.28;98846.78;5103640;28;20015;-73
2022/01/11 10:45:49;;;;;;;35.92;19.38;;;;;;;6.80;62.13;98847.28;5099649;28;20020;-73
2022/01/11 10:48:23;;;;;;;39.90;21.67;;;;;;;5.61;64.42;98849.25;5099931;28;20502;-73
2022/01/11 10:50:55;;;;;;;39.47;20.40;;;;;;;6.33;63.45;98847.63;5109656;28;20437;-73
2022/01/11 10:53:24;;;;;;;35.38;20.20;;;;;;;6.05;64.66;98839.53;5108923;28;20027;-72
2022/01/11 10:55:55;;;;;;;41.85;21.98;;;;;;;4.53;69.35;98837.41;5107352;28;20035;-73
2022/01/11 10:58:22;;;;;;;40.53;21.08;;;;;;;4.76;69.30;98840.13;5104395;28;20027;-73
2022/01/11 11:00:51;;;;;;;46.25;21.48;;;;;;;5.14;67.39;98832.28;5110235;28;20556;-73
2022/01/11 11:03:18;;;;;;;42.10;19.92;;;;;;;5.37;66.67;98842.25;5098791;28;20036;-77
2022/01/11 11:05:47;;;;;;;36.45;19.55;;;;;;;5.58;65.26;98838.88;5102983;28;20118;-73
2022/01/11 11:08:17;;;;;;;38.20;20.85;;;;;;;6.37;62.91;98831.66;5107705;28;20050;-72
2022/01/11 11:10:45;;;;;;;35.80;20.30;;;;;;;6.37;63.19;98826.25;5099803;28;20681;-73
2022/01/11 11:13:36;;;;;;;35.78;20.48;;;;;;;5.62;64.78;98831.91;5106708;28;20038;-73
2022/01/11 11:16:18;;;;;;;38.65;19.85;;;;;;;5.88;65.87;98835.97;5103194;28;20772;-73
2022/01/11 11:18:49;;;;;;;40.70;20.70;;;;;;;5.96;66.14;98837.47;5103621;28;20034;-73